Plesetsk, Russia
Current Conditions -  °F | °C
As of 7:00 AM on Friday 28 Nov 2014 (Local Time) from ULAA Reporting Station
Snow Showers Snow Showers  
Wind Chill: 24°   Ceiling: 600
Heat Index: 32°   Visibility: 3mi
Dew Point: 32°   Wind: 9mph
Humidity: 100%   Direction: 280°W
Pressure: 30.36"   Gusts: NA
Location:  62.72°N, 40.28°E
Report Text: ULAA 280400Z 28004MPS 250V320 5000 -SHSNRA BR OVC006CB 00/00 Q1028 BECMG 2000 SHSN BR BKN005CB RMK QBB180 QFE770/1026 SC042
Loading
Personal Weather Stations






























Interactive Weather Map New forecast layout! Learn more

10-Day Weather Forecast

Advertisements
Track Severe Weather on mobile